Time;durP1;ratioP1;P1;durP2;ratioP2;P2;SDS_P1;SDS_P2;PMS_P1;PMS_P2;Temp;Humidity;BMP_temperature;BMP_pressure;BME280_temperature;BME280_humidity;BME280_pressure;Samples;Min_cycle;Max_cycle;Signal;HPM_P1;HPM_P2
2022/03/12 07:02:20;;;;;;;;;8.00;7.00;;;;;12.93;100.00;101110.06;5472682;23;46613;-96
2022/03/12 07:08:12;;;;;;;;;;;;;;;;;;;;;
2022/03/12 07:11:04;;;;;;;;;;;;;;;;;;;;;
2022/03/12 07:13:42;;;;;;;;;3.33;3.00;;;;;13.03;100.00;101121.88;4959220;28;72804;-96
2022/03/12 07:17:40;;;;;;;;;;;;;;;;;;;;;
2022/03/12 07:20:03;;;;;;;;;6.00;5.33;;;;;13.02;100.00;101129.72;4875628;29;45292;-96
2022/03/12 07:22:32;;;;;;;;;7.00;3.67;;;;;13.04;100.00;101131.56;4881041;29;47319;-96
2022/03/12 07:24:57;;;;;;;;;8.00;4.00;;;;;13.12;100.00;101131.91;4894441;29;45403;-96
2022/03/12 07:27:24;;;;;;;;;9.33;6.33;;;;;13.22;100.00;101141.06;4894830;29;45479;-96
2022/03/12 07:29:51;;;;;;;;;8.00;4.67;;;;;13.24;100.00;101142.06;4890823;29;45370;-96
2022/03/12 07:32:21;;;;;;;;;5.67;5.67;;;;;13.30;100.00;101133.47;4878859;29;48550;-96
2022/03/12 07:34:56;;;;;;;;;4.00;4.00;;;;;13.30;100.00;101138.75;4887947;28;44782;-96
2022/03/12 07:37:21;;;;;;;;;4.67;3.33;;;;;13.32;100.00;101130.91;4887125;29;44800;-88
2022/03/12 07:39:47;;;;;;;;;6.00;6.00;;;;;13.43;100.00;101134.88;4865048;29;45606;-89
2022/03/12 07:42:13;;;;;;;;;4.33;4.00;;;;;13.55;100.00;101133.56;4878921;29;46256;-88
2022/03/12 07:44:39;;;;;;;;;3.33;3.33;;;;;13.66;100.00;101144.59;4876547;29;45396;-87
2022/03/12 07:47:05;;;;;;;;;7.33;5.67;;;;;13.72;100.00;101152.72;4877186;29;45445;-88
2022/03/12 07:49:31;;;;;;;;;7.67;4.00;;;;;13.82;100.00;101148.69;4874460;29;45571;-88
2022/03/12 07:51:56;;;;;;;;;6.33;4.33;;;;;13.94;100.00;101158.84;4875833;29;45580;-88
2022/03/12 07:54:22;;;;;;;;;7.67;7.33;;;;;14.04;100.00;101157.44;4890985;28;45540;-89
2022/03/12 07:56:47;;;;;;;;;4.00;4.00;;;;;14.11;100.00;101161.19;4965005;28;45583;-88
2022/03/12 07:59:14;;;;;;;;;3.00;3.00;;;;;14.18;100.00;101168.50;4963381;28;45478;-89
2022/03/12 08:01:39;;;;;;;;;6.67;4.67;;;;;14.21;100.00;101163.34;4951335;28;46387;-89
2022/03/12 08:04:06;;;;;;;;;5.33;5.33;;;;;14.27;100.00;101173.25;4968290;28;44912;-90
2022/03/12 08:06:33;;;;;;;;;6.67;5.00;;;;;14.29;100.00;101174.19;4963844;28;45569;-89
2022/03/12 08:08:59;;;;;;;;;3.33;3.33;;;;;14.30;100.00;101181.28;4964124;28;45501;-88
2022/03/12 08:11:25;;;;;;;;;4.00;4.00;;;;;14.36;100.00;101189.41;4961335;28;47986;-88
2022/03/12 08:13:53;;;;;;;;;3.67;3.67;;;;;14.36;100.00;101193.78;4954331;28;45620;-89
2022/03/12 08:16:19;;;;;;;;;3.33;2.67;;;;;14.33;100.00;101194.56;4950413;28;45625;-88
2022/03/12 08:18:44;;;;;;;;;6.00;4.33;;;;;14.37;100.00;101200.88;4941079;28;45535;-88
2022/03/12 08:21:11;;;;;;;;;6.33;3.67;;;;;14.44;100.00;101205.53;4953589;28;47220;-88
2022/03/12 08:23:37;;;;;;;;;4.00;4.00;;;;;14.43;100.00;101209.00;4951651;28;45524;-88
2022/03/12 08:26:03;;;;;;;;;8.00;4.00;;;;;14.45;100.00;101215.28;4949949;28;45341;-89
2022/03/12 08:28:32;;;;;;;;;4.33;3.33;;;;;14.43;100.00;101216.06;4944563;28;45523;-88
2022/03/12 08:30:57;;;;;;;;;6.67;5.67;;;;;14.49;100.00;101224.19;4953774;28;48179;-88
2022/03/12 08:33:25;;;;;;;;;5.33;4.00;;;;;14.63;100.00;101232.63;4976363;28;45498;-88
2022/03/12 08:35:57;;;;;;;;;6.67;6.00;;;;;14.54;100.00;101227.91;4968229;28;45340;-88
2022/03/12 08:38:24;;;;;;;;;5.67;5.00;;;;;14.62;100.00;101238.75;4944951;28;45789;-88
2022/03/12 08:40:49;;;;;;;;;5.33;4.00;;;;;14.65;100.00;101238.88;4958423;28;45611;-89
2022/03/12 08:43:15;;;;;;;;;4.67;4.00;;;;;14.72;100.00;101238.25;4954351;28;45976;-89
2022/03/12 08:45:40;;;;;;;;;8.00;5.33;;;;;14.81;100.00;101235.06;4959144;28;45479;-89
2022/03/12 08:48:05;;;;;;;;;7.00;7.00;;;;;14.90;100.00;101236.22;4962239;28;45506;-89
2022/03/12 08:50:32;;;;;;;;;7.67;7.67;;;;;14.96;100.00;101240.00;4962854;28;46056;-88
2022/03/12 08:52:58;;;;;;;;;7.00;6.00;;;;;15.03;100.00;101235.81;4964002;28;45384;-88
2022/03/12 08:55:23;;;;;;;;;8.00;8.00;;;;;15.09;100.00;101232.50;4958928;28;45404;-88
2022/03/12 08:57:49;;;;;;;;;4.00;4.00;;;;;15.17;100.00;101244.25;4970438;28;45511;-88
2022/03/12 09:00:16;;;;;;;;;6.67;5.00;;;;;15.26;100.00;101229.53;4971407;28;45291;-88
2022/03/12 09:02:41;;;;;;;;;7.67;7.33;;;;;15.32;100.00;101235.03;4944324;28;45575;-89
2022/03/12 09:05:10;;;;;;;;;4.67;4.67;;;;;15.44;100.00;101234.53;4942869;28;45900;-88
2022/03/12 09:07:36;;;;;;;;;5.33;5.33;;;;;15.41;100.00;101239.75;4965603;28;45640;-88
2022/03/12 09:10:03;;;;;;;;;3.33;3.33;;;;;15.41;100.00;101245.91;4971598;28;45606;-89
2022/03/12 09:12:28;;;;;;;;;3.00;3.00;;;;;15.30;100.00;101242.94;4960444;28;45406;-89
2022/03/12 09:14:53;;;;;;;;;6.33;4.00;;;;;15.27;100.00;101244.56;4969862;28;45362;-88
2022/03/12 09:17:20;;;;;;;;;5.67;4.00;;;;;15.27;100.00;101241.91;4966296;28;45402;-89
2022/03/12 09:19:45;;;;;;;;;6.33;4.00;;;;;15.35;100.00;101235.13;4945910;28;47274;-89
2022/03/12 09:22:11;;;;;;;;;6.00;3.67;;;;;15.45;100.00;101233.69;4960305;28;54223;-89
2022/03/12 09:24:38;;;;;;;;;7.67;6.67;;;;;15.52;100.00;101235.69;4952103;28;45332;-89
2022/03/12 09:27:04;;;;;;;;;3.00;3.00;;;;;15.60;100.00;101233.28;4956969;28;45611;-89
2022/03/12 09:29:35;;;;;;;;;4.00;4.00;;;;;15.62;100.00;101243.91;4947514;28;47533;-89
2022/03/12 09:32:01;;;;;;;;;4.67;4.00;;;;;15.66;100.00;101243.19;4951865;28;45601;-89
2022/03/12 09:34:26;;;;;;;;;5.00;4.00;;;;;15.63;100.00;101236.03;4957669;28;45464;-89
2022/03/12 09:36:51;;;;;;;;;4.33;4.33;;;;;15.76;100.00;101249.66;4956217;28;51714;-89
2022/03/12 09:39:17;;;;;;;;;5.33;4.33;;;;;15.89;100.00;101239.47;4952735;28;46932;-89
2022/03/12 09:41:43;;;;;;;;;7.33;6.67;;;;;15.96;100.00;101245.00;4953247;28;45922;-89
2022/03/12 09:44:09;;;;;;;;;6.67;4.67;;;;;15.99;100.00;101246.84;4968472;28;45462;-88
2022/03/12 09:46:35;;;;;;;;;7.00;7.00;;;;;16.03;100.00;101237.25;4941547;28;45484;-88
2022/03/12 09:49:00;;;;;;;;;5.33;5.33;;;;;16.17;100.00;101241.25;4955323;28;45497;-88
2022/03/12 09:51:28;;;;;;;;;7.67;6.00;;;;;16.32;100.00;101242.53;4979634;28;45498;-88
2022/03/12 09:53:55;;;;;;;;;3.00;3.00;;;;;16.43;100.00;101245.50;4955731;28;45383;-89
2022/03/12 09:56:20;;;;;;;;;4.67;4.67;;;;;16.51;100.00;101246.66;4972518;28;45568;-89
2022/03/12 09:58:46;;;;;;;;;5.00;5.00;;;;;16.67;100.00;101243.53;4971144;28;45568;-88
2022/03/12 10:01:11;;;;;;;;;4.00;4.00;;;;;16.78;100.00;101239.41;4950824;28;45625;-88
2022/03/12 10:03:38;;;;;;;;;5.00;4.00;;;;;16.93;100.00;101236.28;4944031;28;45635;-89
2022/03/12 10:06:05;;;;;;;;;3.33;3.33;;;;;17.08;100.00;101238.47;4952503;28;45680;-89
2022/03/12 10:08:31;;;;;;;;;5.67;4.67;;;;;17.19;100.00;101235.19;4952885;28;46962;-90
2022/03/12 10:10:56;;;;;;;;;5.00;5.00;;;;;17.31;100.00;101243.50;4949754;28;45372;-89
2022/03/12 10:13:22;;;;;;;;;4.00;4.00;;;;;17.50;100.00;101233.31;4964727;28;45643;-89
2022/03/12 10:15:47;;;;;;;;;4.00;4.00;;;;;17.64;100.00;101231.00;4943184;28;45701;-89
2022/03/12 10:18:12;;;;;;;;;8.00;6.67;;;;;17.72;100.00;101232.94;4969888;28;48770;-88
2022/03/12 10:20:39;;;;;;;;;4.00;3.33;;;;;17.82;100.00;101232.28;4967792;28;46883;-89
2022/03/12 10:23:05;;;;;;;;;3.67;3.67;;;;;17.99;100.00;101229.09;4951822;28;45474;-91
2022/03/12 10:25:31;;;;;;;;;5.00;4.00;;;;;18.12;100.00;101229.38;4977468;28;45406;-88
2022/03/12 10:27:57;;;;;;;;;7.67;4.00;;;;;18.25;100.00;101231.47;4974539;28;45543;-89
2022/03/12 10:30:22;;;;;;;;;3.00;3.00;;;;;18.37;100.00;101216.66;4977346;28;45549;-88
2022/03/12 10:32:50;;;;;;;;;3.00;3.00;;;;;18.44;100.00;101215.91;4957916;28;45510;-88
2022/03/12 10:35:19;;;;;;;;;4.00;3.00;;;;;18.50;100.00;101210.72;4957737;28;45503;-88
2022/03/12 10:37:46;;;;;;;;;3.00;3.00;;;;;18.52;100.00;101218.72;4973243;28;45890;-89
2022/03/12 10:40:17;;;;;;;;;2.00;2.00;;;;;18.58;100.00;101215.31;4957848;28;46411;-89
2022/03/12 10:42:48;;;;;;;;;4.33;3.33;;;;;18.69;100.00;101212.84;4941204;28;45418;-89
2022/03/12 10:45:22;;;;;;;;;7.00;6.33;;;;;18.85;100.00;101219.34;4958763;28;45513;-88
2022/03/12 10:47:54;;;;;;;;;10.00;10.00;;;;;19.00;100.00;101216.06;4976233;28;46336;-89
2022/03/12 10:50:22;;;;;;;;;5.00;4.00;;;;;19.10;100.00;101222.44;4952485;28;45455;-90
2022/03/12 10:52:50;;;;;;;;;5.33;4.00;;;;;19.14;100.00;101226.06;4966228;28;45536;-90
2022/03/12 10:55:24;;;;;;;;;3.67;2.00;;;;;19.15;100.00;101220.75;4975855;28;45664;-89
2022/03/12 10:58:02;;;;;;;;;6.00;2.00;;;;;19.09;100.00;101210.03;4956220;28;48248;-89
2022/03/12 11:00:31;;;;;;;;;3.00;3.00;;;;;19.07;100.00;101220.63;4958976;28;45362;-90
2022/03/12 11:02:59;;;;;;;;;4.67;3.67;;;;;19.14;100.00;101211.00;4974841;28;45477;-91
2022/03/12 11:05:32;;;;;;;;;3.33;3.33;;;;;19.29;100.00;101220.13;4957823;28;45474;-89
2022/03/12 11:08:16;;;;;;;;;4.00;4.00;;;;;19.39;100.00;101216.75;4976841;28;45554;-91
2022/03/12 11:10:59;;;;;;;;;4.00;4.00;;;;;19.47;100.00;101210.66;4976003;28;45469;-91
2022/03/12 11:13:48;;;;;;;;;2.33;2.33;;;;;19.55;100.00;101203.69;4968100;28;45556;-89
2022/03/12 11:16:15;;;;;;;;;3.67;3.00;;;;;19.59;100.00;101194.88;4962324;28;45542;-88
2022/03/12 11:19:00;;;;;;;;;2.00;2.00;;;;;19.77;100.00;101196.00;4966490;28;46237;-88
2022/03/12 11:21:35;;;;;;;;;5.00;3.00;;;;;19.91;100.00;101201.53;4971471;28;45477;-89
2022/03/12 11:24:00;;;;;;;;;4.00;3.33;;;;;19.94;100.00;101192.69;4971783;28;45468;-89
2022/03/12 11:26:28;;;;;;;;;4.33;4.00;;;;;19.97;100.00;101192.75;4972564;28;46098;-88
2022/03/12 11:28:58;;;;;;;;;9.00;5.67;;;;;20.06;100.00;101200.84;4970411;28;46470;-89
2022/03/12 11:31:49;;;;;;;;;5.33;4.67;;;;;20.18;100.00;101200.13;4960683;28;45497;-88
2022/03/12 11:34:22;;;;;;;;;6.00;4.00;;;;;20.01;100.00;101189.22;4961438;28;45458;-89
2022/03/12 11:37:13;;;;;;;;;12.00;10.33;;;;;20.07;100.00;101191.09;4974357;28;45525;-88
2022/03/12 11:39:41;;;;;;;;;8.33;6.67;;;;;20.05;100.00;101195.50;4962120;28;47761;-89
2022/03/12 11:42:13;;;;;;;;;4.00;4.00;;;;;20.07;100.00;101193.75;4976142;28;45616;-88
2022/03/12 11:44:41;;;;;;;;;7.33;7.33;;;;;20.08;100.00;101195.53;4975986;28;45534;-89
2022/03/12 11:47:06;;;;;;;;;8.33;5.67;;;;;19.96;100.00;101196.25;4976064;28;45410;-89
2022/03/12 11:49:32;;;;;;;;;3.00;3.00;;;;;19.80;100.00;101185.41;4976420;28;46423;-88
2022/03/12 11:51:59;;;;;;;;;7.33;6.33;;;;;19.70;100.00;101179.06;4976458;28;45632;-87
2022/03/12 11:54:25;;;;;;;;;10.00;8.33;;;;;19.61;100.00;101182.47;4961586;28;45458;-88
2022/03/12 11:56:51;;;;;;;;;7.00;5.33;;;;;19.47;100.00;101176.03;4973900;28;45501;-90
2022/03/12 11:59:17;;;;;;;;;6.67;5.00;;;;;19.36;100.00;101173.22;4975978;28;47481;-89
2022/03/12 12:01:43;;;;;;;;;5.00;4.33;;;;;19.22;100.00;101171.25;4974355;28;45477;-89
2022/03/12 12:04:08;;;;;;;;;5.00;3.00;;;;;19.18;100.00;101167.63;4956731;28;46058;-88
2022/03/12 12:06:38;;;;;;;;;11.00;7.00;;;;;19.18;100.00;101169.38;4966159;28;45448;-88
2022/03/12 12:09:04;;;;;;;;;5.00;5.00;;;;;19.18;100.00;101169.38;4973696;28;46239;-90
2022/03/12 12:11:35;;;;;;;;;6.67;6.33;;;;;19.21;100.00;101172.09;4966859;28;45344;-88
2022/03/12 12:14:00;;;;;;;;;5.67;5.33;;;;;19.26;100.00;101169.50;4949892;28;45437;-89
2022/03/12 12:16:29;;;;;;;;;5.67;5.67;;;;;19.24;100.00;101160.63;4955476;28;45415;-90
2022/03/12 12:18:54;;;;;;;;;4.67;4.67;;;;;19.18;100.00;101162.31;4940995;28;48026;-89
2022/03/12 12:21:19;;;;;;;;;7.00;5.00;;;;;19.19;100.00;101156.13;4976415;28;45399;-89
2022/03/12 12:23:47;;;;;;;;;5.33;4.67;;;;;19.23;100.00;101140.19;4948960;28;45456;-89
2022/03/12 12:26:13;;;;;;;;;5.00;4.00;;;;;19.17;100.00;101139.19;4945269;28;45596;-89
2022/03/12 12:28:48;;;;;;;;;5.67;5.67;;;;;19.25;100.00;101136.69;4951510;28;48098;-89
2022/03/12 12:31:19;;;;;;;;;6.00;5.33;;;;;19.22;100.00;101138.41;4966187;28;45619;-89
2022/03/12 12:33:45;;;;;;;;;4.00;3.33;;;;;19.10;100.00;101135.53;4970917;28;45393;-88
2022/03/12 12:36:14;;;;;;;;;7.00;7.00;;;;;19.07;100.00;101135.50;4967803;28;45355;-89
2022/03/12 12:39:00;;;;;;;;;9.33;9.33;;;;;18.96;100.00;101138.00;4964858;28;46504;-89
2022/03/12 12:41:51;;;;;;;;;6.33;5.00;;;;;18.92;100.00;101129.91;4950618;28;45667;-89
2022/03/12 12:44:33;;;;;;;;;4.67;3.00;;;;;18.64;100.00;101119.69;4966974;28;46169;-88
2022/03/12 12:47:02;;;;;;;;;4.33;3.00;;;;;18.38;100.00;101120.13;4951048;28;45566;-88
2022/03/12 12:49:39;;;;;;;;;3.67;3.00;;;;;18.14;100.00;101124.06;4944519;28;48143;-88
2022/03/12 12:52:05;;;;;;;;;7.33;5.00;;;;;17.75;100.00;101117.09;4942931;28;45528;-89
2022/03/12 12:55:03;;;;;;;;;4.00;4.00;;;;;17.65;100.00;101107.16;4974368;28;45650;-89
2022/03/12 12:57:47;;;;;;;;;4.67;4.00;;;;;17.35;100.00;101106.47;4958897;28;45954;-88
2022/03/12 13:00:19;;;;;;;;;4.00;3.00;;;;;17.25;100.00;101113.34;4974260;28;45686;-89
2022/03/12 13:02:44;;;;;;;;;5.67;5.67;;;;;17.06;100.00;101109.34;4949906;28;45391;-88
2022/03/12 13:05:12;;;;;;;;;8.33;6.00;;;;;17.05;100.00;101103.13;4954859;28;45415;-88
2022/03/12 13:07:58;;;;;;;;;9.33;7.00;;;;;17.12;100.00;101096.19;4973378;28;45558;-88
2022/03/12 13:10:28;;;;;;;;;6.33;6.33;;;;;17.11;100.00;101089.09;4957421;28;48401;-88
2022/03/12 13:13:15;;;;;;;;;11.67;6.33;;;;;17.08;100.00;101092.59;4938945;28;46240;-88
2022/03/12 13:15:43;;;;;;;;;9.00;8.00;;;;;16.97;100.00;101080.81;4972660;28;45458;-88
2022/03/12 13:18:17;;;;;;;;;7.33;5.33;;;;;16.99;100.00;101084.41;4975708;28;45682;-89
2022/03/12 13:20:50;;;;;;;;;6.67;6.00;;;;;16.93;100.00;101069.22;4975204;28;46601;-89
2022/03/12 13:23:25;;;;;;;;;29.33;25.00;;;;;16.84;100.00;101072.56;4967437;28;45433;-89
2022/03/12 13:25:55;;;;;;;;;16.33;14.67;;;;;16.83;100.00;101067.22;4965516;28;45752;-89
2022/03/12 13:28:40;;;;;;;;;11.00;6.33;;;;;16.82;100.00;101058.38;4957149;28;45501;-89
2022/03/12 13:31:19;;;;;;;;;6.00;5.33;;;;;16.81;100.00;101056.59;4973757;28;45384;-88
2022/03/12 13:33:47;;;;;;;;;8.67;8.00;;;;;16.81;100.00;101039.78;4951796;28;45450;-88
2022/03/12 13:36:20;;;;;;;;;7.33;5.00;;;;;16.98;100.00;101042.84;4975610;28;45468;-89
2022/03/12 13:38:46;;;;;;;;;6.67;6.67;;;;;17.03;100.00;101027.94;4955709;28;45678;-90
2022/03/12 13:41:16;;;;;;;;;7.33;5.00;;;;;17.35;100.00;101028.63;4957398;28;48398;-89
2022/03/12 13:43:42;;;;;;;;;8.33;5.00;;;;;17.51;100.00;101016.59;4955226;28;45397;-89
2022/03/12 13:46:07;;;;;;;;;5.67;5.67;;;;;17.65;100.00;101020.44;4940734;28;45418;-90
2022/03/12 13:48:33;;;;;;;;;6.00;6.00;;;;;17.79;100.00;101021.56;4971393;28;45653;-91
2022/03/12 13:50:58;;;;;;;;;4.33;4.00;;;;;17.95;100.00;101010.41;4974910;28;46483;-90
2022/03/12 13:53:28;;;;;;;;;3.67;3.67;;;;;18.22;100.00;101010.03;4970954;28;45406;-89
2022/03/12 13:56:02;;;;;;;;;4.33;4.33;;;;;18.42;100.00;101002.41;4947585;28;45321;-89
2022/03/12 13:58:29;;;;;;;;;8.00;7.67;;;;;18.51;100.00;101007.84;4968747;28;45731;-88
2022/03/12 14:00:59;;;;;;;;;6.00;6.00;;;;;18.65;100.00;101002.78;4969710;28;46155;-90
2022/03/12 14:03:29;;;;;;;;;8.00;7.33;;;;;18.83;100.00;101003.03;4958562;28;45331;-89
2022/03/12 14:05:55;;;;;;;;;6.67;4.33;;;;;18.75;100.00;100990.50;4962056;28;45410;-91
2022/03/12 14:08:28;;;;;;;;;6.00;6.00;;;;;18.63;100.00;101007.16;4950759;28;45696;-90
2022/03/12 14:10:54;;;;;;;;;4.00;4.00;;;;;18.52;100.00;101003.44;4974718;28;45401;-90
2022/03/12 14:13:22;;;;;;;;;3.33;3.33;;;;;18.82;100.00;101001.22;4954928;28;46005;-88
2022/03/12 14:15:49;;;;;;;;;3.67;3.67;;;;;19.20;100.00;100992.94;4959849;28;45445;-89
2022/03/12 14:18:23;;;;;;;;;4.00;3.33;;;;;19.40;100.00;100991.41;4942040;28;45511;-89
2022/03/12 14:20:50;;;;;;;;;4.00;3.00;;;;;19.15;100.00;100991.94;4952255;28;47201;-89
2022/03/12 14:23:20;;;;;;;;;3.00;3.00;;;;;18.87;100.00;100987.13;4956506;28;45441;-89
2022/03/12 14:25:48;;;;;;;;;5.00;3.00;;;;;18.55;100.00;100995.53;4975263;28;45266;-89
2022/03/12 14:28:13;;;;;;;;;4.00;4.00;;;;;18.27;100.00;100987.97;4976141;28;45489;-88
2022/03/12 14:30:40;;;;;;;;;3.67;3.67;;;;;18.13;100.00;100995.66;4975380;28;46216;-89
2022/03/12 14:33:06;;;;;;;;;3.00;3.00;;;;;18.04;100.00;100988.41;4963282;28;45438;-89
2022/03/12 14:35:32;;;;;;;;;4.00;3.00;;;;;18.07;100.00;100984.91;4949740;28;45798;-89
2022/03/12 14:37:57;;;;;;;;;2.00;2.00;;;;;18.48;100.00;100975.91;4964583;28;45473;-89
2022/03/12 14:40:23;;;;;;;;;3.33;3.33;;;;;18.93;100.00;100980.13;4956596;28;46235;-89
2022/03/12 14:42:50;;;;;;;;;4.67;4.67;;;;;19.24;100.00;100980.56;4940079;28;45736;-89
2022/03/12 14:45:18;;;;;;;;;6.33;3.00;;;;;19.27;100.00;100980.63;4942789;28;45382;-89
2022/03/12 14:47:45;;;;;;;;;3.33;3.33;;;;;18.98;100.00;100979.31;4970484;28;45373;-89
2022/03/12 14:50:11;;;;;;;;;4.00;4.00;;;;;18.66;100.00;100977.06;4971710;28;45780;-89
2022/03/12 14:52:38;;;;;;;;;0.00;0.00;;;;;18.29;100.00;100972.06;4955485;28;45367;-87
2022/03/12 14:55:09;;;;;;;;;6.33;3.67;;;;;18.01;100.00;100985.72;4956325;28;45388;-89
2022/03/12 14:57:35;;;;;;;;;4.67;4.67;;;;;17.68;100.00;100990.41;4970714;28;45700;-88
2022/03/12 15:00:03;;;;;;;;;5.67;5.67;;;;;17.48;100.00;100990.91;4965968;28;46070;-89
2022/03/12 15:02:30;;;;;;;;;4.67;3.33;;;;;17.34;100.00;100987.97;4972511;28;45505;-91
2022/03/12 15:04:55;;;;;;;;;4.00;4.00;;;;;17.16;100.00;100981.38;4957441;28;45427;-89
2022/03/12 15:07:41;;;;;;;;;3.00;3.00;;;;;17.20;100.00;100985.00;4957520;28;45652;-91
2022/03/12 15:10:14;;;;;;;;;5.00;5.00;;;;;17.09;100.00;100990.94;4945875;28;47133;-89
2022/03/12 15:12:50;;;;;;;;;5.00;5.00;;;;;17.14;100.00;100993.69;4971672;28;45487;-89
2022/03/12 15:15:33;;;;;;;;;7.00;7.00;;;;;17.09;100.00;100982.97;4977432;28;45580;-89
2022/03/12 15:17:58;;;;;;;;;4.00;4.00;;;;;17.04;100.00;100981.09;4977063;28;45411;-89
2022/03/12 15:20:29;;;;;;;;;5.33;5.33;;;;;17.13;100.00;100976.00;4973249;28;46431;-90
2022/03/12 15:23:15;;;;;;;;;7.33;6.00;;;;;17.09;100.00;100972.38;4973113;28;45624;-89
2022/03/12 15:25:43;;;;;;;;;5.67;5.00;;;;;16.98;100.00;100969.47;4957058;28;45478;-89
2022/03/12 15:28:21;;;;;;;;;5.00;5.00;;;;;16.85;100.00;100970.94;4957882;28;45395;-92
2022/03/12 15:30:52;;;;;;;;;9.33;7.33;;;;;16.82;100.00;100975.31;4946692;28;47765;-89
2022/03/12 15:33:29;;;;;;;;;4.33;4.00;;;;;16.71;100.00;100975.06;4954576;28;45589;-90
2022/03/12 15:36:08;;;;;;;;;7.33;3.33;;;;;16.64;100.00;100966.97;4964900;28;45571;-88
2022/03/12 15:38:33;;;;;;;;;6.33;6.00;;;;;16.52;100.00;100972.84;4955850;28;45517;-89
2022/03/12 15:40:58;;;;;;;;;5.00;4.00;;;;;16.52;100.00;100956.94;4957960;28;48045;-88
2022/03/12 15:43:24;;;;;;;;;9.00;8.00;;;;;16.56;100.00;100959.69;4954352;28;59763;-89
2022/03/12 15:45:49;;;;;;;;;4.00;4.00;;;;;16.58;100.00;100964.16;4975283;28;45374;-88
2022/03/12 15:48:15;;;;;;;;;4.33;4.33;;;;;16.52;100.00;100974.59;4971755;28;45501;-90
2022/03/12 15:50:40;;;;;;;;;5.67;5.33;;;;;16.44;100.00;100969.09;4974915;28;45569;-89
2022/03/12 15:53:10;;;;;;;;;5.33;5.33;;;;;16.44;100.00;100966.47;4972406;28;45503;-88
2022/03/12 15:55:36;;;;;;;;;6.00;5.00;;;;;16.44;100.00;100966.47;4956963;28;45551;-90
2022/03/12 15:58:03;;;;;;;;;3.67;3.67;;;;;16.39;100.00;100958.41;4961946;28;45689;-89
2022/03/12 16:00:29;;;;;;;;;4.67;3.67;;;;;16.33;100.00;100960.91;4949121;28;48370;-91
2022/03/12 16:02:55;;;;;;;;;5.00;3.00;;;;;16.23;100.00;100957.16;4967013;28;45591;-90
2022/03/12 16:05:21;;;;;;;;;4.00;4.00;;;;;16.19;100.00;100950.88;4963438;28;45402;-92
2022/03/12 16:07:47;;;;;;;;;4.67;4.67;;;;;16.15;100.00;100942.81;4971816;28;45734;-90
2022/03/12 16:10:17;;;;;;;;;7.00;5.00;;;;;16.14;100.00;100943.66;4955954;28;48339;-91
2022/03/12 16:12:44;;;;;;;;;4.00;4.00;;;;;16.11;100.00;100940.91;4953578;28;45835;-92
2022/03/12 16:15:11;;;;;;;;;3.00;3.00;;;;;16.05;100.00;100939.03;4964996;28;45580;-92
2022/03/12 16:17:38;;;;;;;;;3.67;3.67;;;;;16.04;100.00;100940.75;4947940;28;45558;-91
2022/03/12 16:20:11;;;;;;;;;2.33;2.33;;;;;16.07;100.00;100934.66;4956445;28;46345;-96
2022/03/12 16:22:37;;;;;;;;;3.00;3.00;;;;;16.04;100.00;100942.50;4960475;28;45630;-93
2022/03/12 16:25:09;;;;;;;;;4.67;3.00;;;;;16.08;100.00;100940.00;4955961;28;45486;-95
2022/03/12 16:27:35;;;;;;;;;2.00;2.00;;;;;15.95;100.00;100928.16;4975895;28;45342;-94
2022/03/12 16:30:02;;;;;;;;;3.67;3.67;;;;;15.91;100.00;100928.03;4975304;28;45680;-94
2022/03/12 16:32:28;;;;;;;;;5.00;3.00;;;;;15.86;100.00;100941.16;4950818;28;45432;-94
2022/03/12 16:34:54;;;;;;;;;3.67;3.67;;;;;15.79;100.00;100929.53;4945001;28;45402;-95
2022/03/12 16:37:19;;;;;;;;;5.00;5.00;;;;;15.74;100.00;100932.06;4961896;28;45368;-95
2022/03/12 16:39:46;;;;;;;;;6.33;4.33;;;;;15.70;100.00;100931.91;4976070;28;46220;-95
2022/03/12 16:42:12;;;;;;;;;7.00;3.00;;;;;15.60;100.00;100931.66;4960503;28;45364;-95
2022/03/12 16:44:41;;;;;;;;;3.00;3.00;;;;;15.58;100.00;100937.75;4946642;28;45567;-96
2022/03/12 16:47:06;;;;;;;;;5.00;4.00;;;;;15.55;100.00;100937.66;4950775;28;45562;-93
2022/03/12 16:49:32;;;;;;;;;2.33;2.33;;;;;15.51;100.00;100931.41;4956676;28;46675;-94
2022/03/12 16:51:58;;;;;;;;;5.67;4.33;;;;;15.49;100.00;100933.09;4973093;28;45454;-94
2022/03/12 16:54:23;;;;;;;;;2.67;1.33;;;;;15.44;100.00;100932.06;4962215;28;45367;-94
2022/03/12 16:56:49;;;;;;;;;3.00;3.00;;;;;15.40;100.00;100929.38;4954839;28;45329;-92
2022/03/12 16:59:14;;;;;;;;;4.33;3.67;;;;;15.36;100.00;100931.88;4975244;28;57827;-96
2022/03/12 17:01:39;;;;;;;;;3.00;3.00;;;;;15.30;100.00;100925.56;4957344;28;45615;-92
2022/03/12 17:04:05;;;;;;;;;3.33;3.33;;;;;15.23;100.00;100928.84;4943658;28;45340;-96
2022/03/12 17:06:32;;;;;;;;;5.00;3.67;;;;;15.23;100.00;100928.84;4963185;28;45456;-94
2022/03/12 17:08:57;;;;;;;;;2.00;2.00;;;;;15.18;100.00;100923.44;4958275;28;46326;-96
2022/03/12 17:11:25;;;;;;;;;5.00;3.33;;;;;15.14;100.00;100924.22;4964132;28;45339;-95
2022/03/12 17:13:51;;;;;;;;;3.67;3.67;;;;;15.10;100.00;100926.72;4973463;28;45520;-92
2022/03/12 17:16:22;;;;;;;;;6.33;3.00;;;;;15.04;100.00;100927.44;4966154;28;45636;-96
2022/03/12 17:18:48;;;;;;;;;5.00;3.00;;;;;15.04;100.00;100935.38;4975227;28;45552;-95
2022/03/12 17:21:15;;;;;;;;;3.33;3.33;;;;;15.02;100.00;100926.50;4951022;28;46017;-96
2022/03/12 17:23:44;;;;;;;;;5.00;5.00;;;;;15.00;100.00;100923.78;4972576;28;45339;-95
2022/03/12 17:26:14;;;;;;;;;4.33;4.33;;;;;15.05;100.00;100927.47;4963614;28;45577;-96
2022/03/12 17:28:43;;;;;;;;;4.33;4.00;;;;;15.06;100.00;100925.72;4973080;28;46351;-96
2022/03/12 17:31:11;;;;;;;;;3.00;3.00;;;;;15.09;100.00;100928.47;4999578;28;45139;-96
2022/03/12 17:33:36;;;;;;;;;4.67;3.33;;;;;15.04;100.00;100920.41;4980883;28;45442;-96
2022/03/12 17:36:02;;;;;;;;;4.67;4.67;;;;;15.05;100.00;100929.25;4976991;28;45180;-96
2022/03/12 17:38:29;;;;;;;;;7.67;4.00;;;;;15.01;100.00;100927.34;4989496;28;46510;-94
2022/03/12 17:40:55;;;;;;;;;5.00;4.33;;;;;14.96;100.00;100928.13;4964725;28;45367;-90
2022/03/12 17:43:21;;;;;;;;;4.67;3.67;;;;;14.93;100.00;100929.75;4993702;28;45776;-95
2022/03/12 17:45:47;;;;;;;;;4.33;3.33;;;;;14.88;100.00;100928.72;4994154;28;45344;-93
2022/03/12 17:48:14;;;;;;;;;4.67;3.67;;;;;14.83;100.00;100933.81;4977116;28;45479;-94
2022/03/12 17:50:40;;;;;;;;;4.00;4.00;;;;;14.82;100.00;100929.38;4969663;28;45427;-95
2022/03/12 17:53:06;;;;;;;;;4.00;4.00;;;;;14.79;100.00;100929.31;4962964;28;45419;-93
2022/03/12 17:55:32;;;;;;;;;4.00;3.33;;;;;14.84;100.00;100927.72;4939664;28;45606;-96
2022/03/12 17:57:58;;;;;;;;;4.00;3.00;;;;;14.80;100.00;100931.09;4973047;28;45453;-95
2022/03/12 18:00:25;;;;;;;;;5.00;3.67;;;;;14.79;100.00;100932.81;4975559;28;45484;-93
2022/03/12 18:02:52;;;;;;;;;3.00;3.00;;;;;14.73;100.00;100930.00;4965785;28;45489;-90
2022/03/12 18:05:21;;;;;;;;;3.33;3.33;;;;;14.73;100.00;100922.09;4967514;28;45422;-93
2022/03/12 18:07:46;;;;;;;;;3.33;3.33;;;;;14.68;100.00;100936.91;4982481;28;46622;-93
2022/03/12 18:10:16;;;;;;;;;4.67;4.67;;;;;14.69;100.00;100936.06;4957434;28;45289;-93
2022/03/12 18:12:45;;;;;;;;;4.00;3.00;;;;;14.69;100.00;100929.00;4940826;28;45493;-94
2022/03/12 18:15:11;;;;;;;;;4.33;3.33;;;;;14.61;100.00;100927.88;4938900;28;45407;-94
2022/03/12 18:17:38;;;;;;;;;6.33;4.00;;;;;14.60;100.00;100926.09;4952586;28;46239;-94
2022/03/12 18:20:06;;;;;;;;;5.33;5.33;;;;;14.62;100.00;100940.22;4976988;28;45381;-95
2022/03/12 18:22:32;;;;;;;;;4.67;4.67;;;;;14.55;100.00;100931.22;4968252;28;45539;-96
2022/03/12 18:24:58;;;;;;;;;5.00;5.00;;;;;14.56;100.00;100935.66;5003289;28;45378;-96
2022/03/12 18:27:24;;;;;;;;;4.00;4.00;;;;;14.55;100.00;100930.31;4965064;28;46930;-96
2022/03/12 18:29:50;;;;;;;;;4.67;4.67;;;;;14.52;100.00;100916.19;4976652;28;45358;-92
2022/03/12 18:32:22;;;;;;;;;4.00;4.00;;;;;14.63;100.00;100924.44;4960854;28;45368;-96
2022/03/12 18:34:50;;;;;;;;;7.00;4.00;;;;;14.55;100.00;100925.03;4954386;28;45537;-95